createdAt,value
2019-03-04T00:01:42.994Z,99207.14
2019-03-04T00:03:50.220Z,99214.26
2019-03-04T00:05:58.149Z,99210.34
2019-03-04T00:08:06.181Z,99209.97
2019-03-04T00:10:13.233Z,99220.11
2019-03-04T00:12:22.338Z,99221.69
2019-03-04T00:14:40.103Z,99224.58
2019-03-04T00:16:47.835Z,99225.51
2019-03-04T00:18:55.156Z,99232.59
2019-03-04T00:21:02.514Z,99231.41
2019-03-04T00:23:09.970Z,99237.95
2019-03-04T00:25:17.418Z,99235.94
2019-03-04T00:27:24.711Z,99243.41
2019-03-04T00:29:31.834Z,99238.30
2019-03-04T00:31:39.663Z,99237.72
2019-03-04T00:33:46.917Z,99244.02
2019-03-04T00:35:55.015Z,99241.70
2019-03-04T00:38:02.410Z,99256.54
2019-03-04T00:40:09.952Z,99253.44
2019-03-04T00:42:17.718Z,99262.22
2019-03-04T00:44:24.964Z,99260.76
2019-03-04T00:46:34.403Z,99263.57
2019-03-04T00:48:42.042Z,99266.41
2019-03-04T00:50:49.251Z,99275.45
2019-03-04T00:53:00.414Z,99273.05
2019-03-04T00:55:07.702Z,99278.59
2019-03-04T00:57:15.139Z,99278.99
2019-03-04T00:59:22.395Z,99285.59
2019-03-04T01:01:29.757Z,99278.91
2019-03-04T01:03:38.077Z,99283.70
2019-03-04T01:05:45.466Z,99275.16
2019-03-04T01:07:52.642Z,99279.34
2019-03-04T01:09:59.890Z,99274.75
2019-03-04T01:12:07.919Z,99276.63
2019-03-04T01:14:15.111Z,99275.62
2019-03-04T01:16:22.521Z,99266.35
2019-03-04T01:18:29.778Z,99275.92
2019-03-04T01:20:37.321Z,99273.95
2019-03-04T01:22:44.479Z,99279.58
2019-03-04T01:24:55.839Z,99270.63
2019-03-04T01:27:04.587Z,99279.48
2019-03-04T01:29:12.122Z,99287.60
2019-03-04T01:31:21.680Z,99291.34
2019-03-04T01:33:29.479Z,99294.95
2019-03-04T01:35:42.961Z,99294.31
2019-03-04T01:38:01.660Z,99296.19
2019-03-04T01:40:12.221Z,99294.95
2019-03-04T01:42:20.053Z,99296.17
2019-03-04T01:44:35.246Z,99304.72
2019-03-04T01:46:42.559Z,99299.37
2019-03-04T01:48:49.800Z,99301.45
2019-03-04T01:50:57.132Z,99301.05
2019-03-04T01:53:04.364Z,99298.72
2019-03-04T01:55:12.484Z,99304.66
2019-03-04T01:57:20.301Z,99304.62
2019-03-04T01:59:27.487Z,99306.84
2019-03-04T02:01:34.698Z,99308.81
2019-03-04T02:03:41.837Z,99304.27
2019-03-04T02:08:02.147Z,99314.66
2019-03-04T02:10:10.663Z,99307.98
2019-03-04T02:12:19.088Z,99307.46
2019-03-04T02:14:26.444Z,99302.68
2019-03-04T02:16:34.559Z,99309.13
2019-03-04T02:18:41.723Z,99302.96
2019-03-04T02:20:50.256Z,99310.38
2019-03-04T02:22:59.698Z,99304.18
2019-03-04T02:25:07.245Z,99306.19
2019-03-04T02:27:14.700Z,99303.24
2019-03-04T02:29:21.785Z,99302.66
2019-03-04T02:31:29.026Z,99312.84
2019-03-04T02:33:36.987Z,99313.27
2019-03-04T02:35:44.141Z,99311.70
2019-03-04T02:37:51.713Z,99306.26
2019-03-04T02:39:58.773Z,99313.53
2019-03-04T02:42:06.084Z,99323.58
2019-03-04T02:44:13.312Z,99314.84
2019-03-04T02:46:20.465Z,99320.77
2019-03-04T02:48:27.787Z,99312.66
2019-03-04T02:50:35.811Z,99314.78
2019-03-04T02:52:43.702Z,99311.41
2019-03-04T02:54:50.854Z,99318.95
2019-03-04T02:56:59.502Z,99311.25
2019-03-04T02:59:07.009Z,99310.94
2019-03-04T03:01:14.640Z,99326.17
2019-03-04T03:03:21.780Z,99314.06
2019-03-04T03:05:28.834Z,99320.77
2019-03-04T03:07:36.609Z,99314.17
2019-03-04T03:09:43.950Z,99322.89
2019-03-04T03:11:52.421Z,99311.83
2019-03-04T03:13:59.713Z,99323.72
2019-03-04T03:16:07.727Z,99332.39
2019-03-04T03:18:16.024Z,99330.52
2019-03-04T03:20:23.300Z,99332.98
2019-03-04T03:22:30.495Z,99331.44
2019-03-04T03:24:37.796Z,99328.05
2019-03-04T03:26:45.073Z,99334.30
2019-03-04T03:28:53.549Z,99335.27
2019-03-04T03:31:01.234Z,99338.70
2019-03-04T03:33:09.364Z,99326.22
2019-03-04T03:35:16.546Z,99339.14
2019-03-04T03:37:24.570Z,99345.70
2019-03-04T03:39:33.941Z,99338.30
2019-03-04T03:41:41.170Z,99341.84
2019-03-04T03:43:48.974Z,99344.23
2019-03-04T03:45:56.283Z,99353.19
2019-03-04T03:48:03.460Z,99354.23
2019-03-04T03:50:17.394Z,99356.87
2019-03-04T03:52:25.282Z,99361.11
2019-03-04T03:54:32.416Z,99360.36
2019-03-04T03:56:40.128Z,99362.23
2019-03-04T03:58:47.672Z,99359.66
2019-03-04T04:00:54.998Z,99362.48
2019-03-04T04:03:02.185Z,99360.22
2019-03-04T04:05:10.071Z,99355.36
2019-03-04T04:07:17.097Z,99361.72
2019-03-04T04:09:25.106Z,99363.70
2019-03-04T04:11:33.849Z,99362.15
2019-03-04T04:13:41.547Z,99355.79
2019-03-04T04:15:48.480Z,99354.46
2019-03-04T04:17:55.695Z,99359.64
2019-03-04T04:20:03.241Z,99362.67
2019-03-04T04:22:10.659Z,99356.71
2019-03-04T04:24:17.947Z,99364.06
2019-03-04T04:26:25.127Z,99367.90
2019-03-04T04:28:34.860Z,99369.75
2019-03-04T04:30:42.122Z,99366.84
2019-03-04T04:32:50.027Z,99367.38
2019-03-04T04:34:57.887Z,99361.98
2019-03-04T04:37:05.204Z,99374.02
2019-03-04T04:39:12.331Z,99374.44
2019-03-04T04:41:19.494Z,99381.84
2019-03-04T04:43:26.917Z,99377.56
2019-03-04T04:45:34.104Z,99384.44
2019-03-04T04:47:48.939Z,99379.56
2019-03-04T04:49:56.105Z,99383.83
2019-03-04T04:52:03.405Z,99385.70
2019-03-04T04:54:11.219Z,99383.93
2019-03-04T04:56:20.130Z,99390.48
2019-03-04T04:58:27.220Z,99395.87
2019-03-04T05:00:35.589Z,99395.30
2019-03-04T05:02:42.575Z,99386.42
2019-03-04T05:04:51.619Z,99393.38
2019-03-04T05:06:59.057Z,99394.35
2019-03-04T05:09:08.486Z,99398.37
2019-03-04T05:11:17.881Z,99391.58
2019-03-04T05:13:25.909Z,99396.29
2019-03-04T05:15:33.144Z,99388.48
2019-03-04T05:17:40.371Z,99391.44
2019-03-04T05:19:47.595Z,99390.64
2019-03-04T05:21:55.069Z,99397.77
2019-03-04T05:24:03.157Z,99379.34
2019-03-04T05:26:10.403Z,99381.34
2019-03-04T05:28:18.302Z,99380.77
2019-03-04T05:30:26.025Z,99373.28
2019-03-04T05:32:33.326Z,99378.41
2019-03-04T05:34:41.262Z,99376.94
2019-03-04T05:36:49.038Z,99379.43
2019-03-04T05:38:56.251Z,99371.11
2019-03-04T05:41:03.475Z,99374.21
2019-03-04T05:43:10.875Z,99376.03
2019-03-04T05:45:18.798Z,99364.72
2019-03-04T05:47:26.463Z,99372.58
2019-03-04T05:49:33.770Z,99380.38
2019-03-04T05:51:41.276Z,99377.84
2019-03-04T05:53:48.700Z,99383.91
2019-03-04T05:55:55.858Z,99382.28
2019-03-04T05:58:03.746Z,99376.05
2019-03-04T06:00:17.256Z,99376.63
2019-03-04T06:02:24.494Z,99381.22
2019-03-04T06:04:31.726Z,99382.48
2019-03-04T06:07:02.313Z,99380.05
2019-03-04T06:09:12.253Z,99377.98
2019-03-04T06:11:20.149Z,99375.47
2019-03-04T06:13:28.071Z,99376.00
2019-03-04T06:15:36.063Z,99373.91
2019-03-04T06:17:43.330Z,99382.04
2019-03-04T06:19:51.243Z,99374.66
2019-03-04T06:21:59.303Z,99375.00
2019-03-04T06:24:07.114Z,99366.13
2019-03-04T06:26:14.961Z,99365.41
2019-03-04T06:28:22.414Z,99374.23
2019-03-04T06:30:29.755Z,99374.20
2019-03-04T06:32:36.981Z,99372.72
2019-03-04T06:34:44.242Z,99369.14
2019-03-04T06:36:53.083Z,99382.18
2019-03-04T06:39:00.527Z,99362.75
2019-03-04T06:41:09.058Z,99364.76
2019-03-04T06:43:16.252Z,99365.81
2019-03-04T06:45:23.432Z,99368.02
2019-03-04T06:47:31.241Z,99368.59
2019-03-04T06:49:38.347Z,99369.55
2019-03-04T06:51:47.533Z,99373.72
2019-03-04T06:54:21.831Z,99368.83
2019-03-04T06:56:58.087Z,99373.59
2019-03-04T06:59:23.728Z,99375.47
2019-03-04T07:01:38.924Z,99370.52
2019-03-04T07:03:54.827Z,99372.48
2019-03-04T07:06:02.011Z,99369.02
2019-03-04T07:08:10.527Z,99365.53
2019-03-04T07:10:18.062Z,99372.67
2019-03-04T07:12:25.221Z,99368.37
2019-03-04T07:14:32.489Z,99367.17
2019-03-04T07:16:39.931Z,99365.95
2019-03-04T07:18:47.261Z,99363.69
2019-03-04T07:20:54.386Z,99353.83
2019-03-04T07:23:02.362Z,99356.14
2019-03-04T07:25:10.564Z,99359.69
2019-03-04T07:27:18.322Z,99360.36
2019-03-04T07:29:45.008Z,99356.84
2019-03-04T07:31:52.193Z,99352.98
2019-03-04T07:33:59.367Z,99357.36
2019-03-04T07:36:08.080Z,99355.08
2019-03-04T07:38:49.195Z,99356.41
2019-03-04T07:40:56.719Z,99356.59
2019-03-04T07:43:03.856Z,99352.08
2019-03-04T07:45:12.260Z,99349.90
2019-03-04T07:47:19.588Z,99350.09
2019-03-04T07:49:26.773Z,99352.74
2019-03-04T07:51:34.033Z,99357.62
2019-03-04T07:53:46.336Z,99350.34
2019-03-04T07:55:52.062Z,99359.84
2019-03-04T07:57:59.520Z,99356.64
2019-03-04T08:00:07.039Z,99360.20
2019-03-04T08:02:14.338Z,99349.50
2019-03-04T08:04:21.420Z,99352.05
2019-03-04T08:06:28.629Z,99346.41
2019-03-04T08:08:36.401Z,99349.96
2019-03-04T08:11:26.346Z,99350.27
2019-03-04T08:13:40.393Z,99344.86
2019-03-04T08:15:49.901Z,99340.28
2019-03-04T08:17:57.088Z,99344.50
2019-03-04T08:20:04.430Z,99338.37
2019-03-04T08:22:11.781Z,99340.13
2019-03-04T08:24:19.037Z,99333.11
2019-03-04T08:26:26.796Z,99332.35
2019-03-04T08:28:33.977Z,99335.86
2019-03-04T08:30:41.658Z,99331.41
2019-03-04T08:32:49.923Z,99336.44
2019-03-04T08:34:57.220Z,99326.64
2019-03-04T08:37:04.535Z,99329.39
2019-03-04T08:39:13.084Z,99338.25
2019-03-04T08:41:20.262Z,99331.75
2019-03-04T08:43:27.616Z,99331.34
2019-03-04T08:45:34.988Z,99320.70
2019-03-04T08:49:55.208Z,99329.04
2019-03-04T08:52:02.613Z,99329.80
2019-03-04T08:54:09.976Z,99329.16
2019-03-04T08:56:17.416Z,99326.05
2019-03-04T08:58:24.548Z,99328.52
2019-03-04T09:00:32.678Z,99329.75
2019-03-04T09:02:40.027Z,99332.42
2019-03-04T09:04:47.228Z,99327.09
2019-03-04T09:06:54.389Z,99328.78
2019-03-04T09:09:01.639Z,99321.22
2019-03-04T09:11:08.531Z,99319.58
2019-03-04T09:13:15.668Z,99329.17
2019-03-04T09:15:22.914Z,99324.50
2019-03-04T09:17:30.202Z,99325.95
2019-03-04T09:19:37.411Z,99325.55
2019-03-04T09:21:44.864Z,99322.06
2019-03-04T09:23:51.970Z,99322.70
2019-03-04T09:26:10.681Z,99330.19
2019-03-04T09:28:18.159Z,99328.71
2019-03-04T09:30:25.908Z,99331.84
2019-03-04T09:32:33.329Z,99330.25
2019-03-04T09:34:40.714Z,99333.45
2019-03-04T09:36:48.171Z,99331.77
2019-03-04T09:38:55.959Z,99333.52
2019-03-04T09:41:03.316Z,99336.06
2019-03-04T09:43:10.347Z,99336.77
2019-03-04T09:45:17.889Z,99331.88
2019-03-04T09:47:25.061Z,99329.86
2019-03-04T09:49:32.353Z,99330.11
2019-03-04T09:51:39.603Z,99334.61
2019-03-04T09:53:46.533Z,99331.63
2019-03-04T09:55:53.625Z,99330.39
2019-03-04T09:58:00.931Z,99331.15
2019-03-04T10:00:25.663Z,99327.00
2019-03-04T10:02:41.459Z,99328.03
2019-03-04T10:05:26.792Z,99325.13
2019-03-04T10:07:41.314Z,99332.37
2019-03-04T10:10:16.325Z,99326.94
2019-03-04T10:12:30.105Z,99326.62
2019-03-04T10:15:09.677Z,99331.94
2019-03-04T10:17:39.947Z,99341.23
2019-03-04T10:20:41.525Z,99346.13
2019-03-04T10:23:28.348Z,99344.55
2019-03-04T10:26:02.553Z,99330.54
2019-03-04T10:28:44.310Z,99340.48
2019-03-04T10:31:11.332Z,99339.42
2019-03-04T10:34:08.034Z,99331.63
2019-03-04T10:36:53.575Z,99348.65
2019-03-04T10:39:26.166Z,99347.37
2019-03-04T10:41:55.983Z,99339.42
2019-03-04T10:44:43.113Z,99340.77
2019-03-04T10:47:03.028Z,99347.78
2019-03-04T10:49:09.988Z,99338.19
2019-03-04T10:51:18.760Z,99328.65
2019-03-04T10:53:26.928Z,99334.64
2019-03-04T10:55:41.690Z,99325.20
2019-03-04T10:57:43.092Z,99338.64
2019-03-04T10:59:50.453Z,99328.45
2019-03-04T11:01:57.898Z,99337.83
2019-03-04T11:04:05.303Z,99335.69
2019-03-04T11:06:13.189Z,99334.14
2019-03-04T11:08:20.814Z,99343.59
2019-03-04T11:10:28.102Z,99339.55
2019-03-04T11:12:35.416Z,99330.69
2019-03-04T11:14:42.788Z,99334.14
2019-03-04T11:16:49.857Z,99327.89
2019-03-04T11:18:56.972Z,99330.79
2019-03-04T11:21:04.399Z,99334.33
2019-03-04T11:23:15.005Z,99329.87
2019-03-04T11:25:21.780Z,99330.18
2019-03-04T11:27:28.932Z,99326.45
2019-03-04T11:29:35.950Z,99329.56
2019-03-04T11:31:44.217Z,99329.66
2019-03-04T11:33:51.420Z,99322.54
2019-03-04T11:35:58.713Z,99316.70
2019-03-04T11:38:08.083Z,99316.89
2019-03-04T11:40:28.441Z,99307.61
2019-03-04T11:42:35.724Z,99316.23
2019-03-04T11:44:42.908Z,99321.09
2019-03-04T11:46:50.215Z,99328.23
2019-03-04T11:48:57.623Z,99332.77
2019-03-04T11:51:05.211Z,99331.25
2019-03-04T11:53:13.053Z,99338.28
2019-03-04T11:55:20.377Z,99335.20
2019-03-04T11:57:27.449Z,99328.58
2019-03-04T11:59:34.732Z,99336.62
2019-03-04T12:01:48.130Z,99322.81
2019-03-04T12:03:56.152Z,99325.22
2019-03-04T12:06:03.205Z,99323.67
2019-03-04T12:08:11.223Z,99328.24
2019-03-04T12:10:18.666Z,99328.67
2019-03-04T12:12:25.899Z,99326.74
2019-03-04T12:14:33.638Z,99323.73
2019-03-04T12:16:41.656Z,99321.49
2019-03-04T12:18:48.986Z,99324.30
2019-03-04T12:20:56.432Z,99320.54
2019-03-04T12:23:05.411Z,99320.20
2019-03-04T12:25:15.087Z,99323.20
2019-03-04T12:27:22.400Z,99323.14
2019-03-04T12:29:29.704Z,99320.22
2019-03-04T12:31:42.020Z,99318.70
2019-03-04T12:33:50.083Z,99313.00
2019-03-04T12:35:57.635Z,99314.48
2019-03-04T12:38:05.664Z,99323.34
2019-03-04T12:40:14.387Z,99329.80
2019-03-04T12:42:23.057Z,99323.06
2019-03-04T12:44:30.222Z,99314.52
2019-03-04T12:46:38.452Z,99316.63
2019-03-04T12:48:46.550Z,99308.83
2019-03-04T12:50:54.247Z,99312.56
2019-03-04T12:53:02.647Z,99310.30
2019-03-04T12:55:11.803Z,99311.22
2019-03-04T12:57:20.429Z,99299.95
2019-03-04T12:59:29.238Z,99305.59
2019-03-04T13:01:36.629Z,99305.99
2019-03-04T13:03:43.963Z,99307.44
2019-03-04T13:05:51.036Z,99309.92
2019-03-04T13:07:59.314Z,99305.03
2019-03-04T13:10:07.814Z,99305.67
2019-03-04T13:12:16.792Z,99297.85
2019-03-04T13:14:23.851Z,99298.06
2019-03-04T13:16:31.146Z,99316.16
2019-03-04T13:18:39.710Z,99312.00
2019-03-04T13:20:49.082Z,99309.47
2019-03-04T13:22:59.173Z,99312.91
2019-03-04T13:25:06.501Z,99314.55
2019-03-04T13:27:23.365Z,99315.34
2019-03-04T13:29:23.268Z,99313.80
2019-03-04T13:31:31.940Z,99319.47
2019-03-04T13:33:39.818Z,99322.08
2019-03-04T13:35:47.487Z,99322.38
2019-03-04T13:38:14.521Z,99323.61
2019-03-04T13:40:21.951Z,99333.30
2019-03-04T13:42:30.053Z,99328.04
2019-03-04T13:44:38.022Z,99338.74
2019-03-04T13:46:45.948Z,99333.61
2019-03-04T13:48:53.153Z,99343.70
2019-03-04T13:51:01.315Z,99344.69
2019-03-04T13:53:08.661Z,99354.08
2019-03-04T13:55:19.901Z,99353.11
2019-03-04T13:57:27.437Z,99363.19
2019-03-04T13:59:34.788Z,99358.20
2019-03-04T14:01:42.875Z,99350.92
2019-03-04T14:03:50.084Z,99360.22
2019-03-04T14:05:57.403Z,99362.47
2019-03-04T14:08:04.719Z,99364.29
2019-03-04T14:10:13.063Z,99364.52
2019-03-04T14:12:20.338Z,99358.98
2019-03-04T14:14:28.465Z,99371.32
2019-03-04T14:16:36.042Z,99373.08
2019-03-04T14:18:43.918Z,99385.27
2019-03-04T14:20:51.351Z,99372.84
2019-03-04T14:22:59.068Z,99372.71
2019-03-04T14:25:06.853Z,99367.57
2019-03-04T14:27:14.008Z,99374.81
2019-03-04T14:29:21.908Z,99376.96
2019-03-04T14:31:29.233Z,99370.38
2019-03-04T14:33:37.424Z,99373.32
2019-03-04T14:35:45.504Z,99379.05
2019-03-04T14:37:53.490Z,99378.28
2019-03-04T14:40:01.648Z,99379.08
2019-03-04T14:42:09.608Z,99385.40
2019-03-04T14:44:16.965Z,99389.72
2019-03-04T14:46:27.921Z,99387.30
2019-03-04T14:48:40.673Z,99369.56
2019-03-04T14:50:47.935Z,99382.59
2019-03-04T14:52:55.334Z,99380.56
2019-03-04T14:55:02.841Z,99388.93
2019-03-04T14:57:10.222Z,99384.45
2019-03-04T14:59:17.306Z,99386.41
2019-03-04T15:01:25.330Z,99381.98
2019-03-04T15:03:33.141Z,99380.73
2019-03-04T15:05:40.640Z,99381.31
